sensor_id;sensor_type;location;lat;lon;timestamp;pressure;altitude;pressure_sealevel;temperature;humidity
10127;BME280;13080;42.608;23.362;2023-10-13T00:01:35;153554.97;;;9.70;87.06
10127;BME280;13080;42.608;23.362;2023-10-13T00:04:03;153545.88;;;9.66;87.58
10127;BME280;13080;42.608;23.362;2023-10-13T00:06:31;153535.53;;;9.62;87.94
10127;BME280;13080;42.608;23.362;2023-10-13T00:08:58;153531.63;;;9.61;87.32
10127;BME280;13080;42.608;23.362;2023-10-13T00:11:25;153538.13;;;9.63;87.51
10127;BME280;13080;42.608;23.362;2023-10-13T00:13:52;153532.91;;;9.61;87.19
10127;BME280;13080;42.608;23.362;2023-10-13T00:16:20;153529.06;;;9.60;88.14
10127;BME280;13080;42.608;23.362;2023-10-13T00:18:49;153523.88;;;9.57;88.25
10127;BME280;13080;42.608;23.362;2023-10-13T00:21:20;153529.06;;;9.60;87.35
10127;BME280;13080;42.608;23.362;2023-10-13T00:23:57;153527.72;;;9.59;88.02
10127;BME280;13080;42.608;23.362;2023-10-13T00:26:27;153522.53;;;9.57;87.97
10127;BME280;13080;42.608;23.362;2023-10-13T00:28:56;153534.19;;;9.62;87.86
10127;BME280;13080;42.608;23.362;2023-10-13T00:31:34;153530.34;;;9.60;87.79
10127;BME280;13080;42.608;23.362;2023-10-13T00:34:05;153527.72;;;9.59;87.98
10127;BME280;13080;42.608;23.362;2023-10-13T00:36:37;153518.66;;;9.55;88.72
10127;BME280;13080;42.608;23.362;2023-10-13T00:39:12;153513.47;;;9.53;88.58
10127;BME280;13080;42.608;23.362;2023-10-13T00:41:41;153507.00;;;9.51;88.42
10127;BME280;13080;42.608;23.362;2023-10-13T00:44:17;153525.16;;;9.58;88.92
10127;BME280;13080;42.608;23.362;2023-10-13T00:46:50;153527.72;;;9.59;88.35
10127;BME280;13080;42.608;23.362;2023-10-13T00:49:22;153538.13;;;9.63;88.36
10127;BME280;13080;42.608;23.362;2023-10-13T00:51:49;153540.72;;;9.64;88.29
10127;BME280;13080;42.608;23.362;2023-10-13T00:54:17;153543.31;;;9.65;87.64
10127;BME280;13080;42.608;23.362;2023-10-13T00:56:45;153529.06;;;9.60;88.08
10127;BME280;13080;42.608;23.362;2023-10-13T00:59:15;153531.63;;;9.61;88.15
10127;BME280;13080;42.608;23.362;2023-10-13T01:01:41;153522.53;;;9.57;89.39
10127;BME280;13080;42.608;23.362;2023-10-13T01:04:10;153497.88;;;9.47;88.98
10127;BME280;13080;42.608;23.362;2023-10-13T01:06:39;153470.63;;;9.36;88.96
10127;BME280;13080;42.608;23.362;2023-10-13T01:09:08;153461.56;;;9.33;88.89
10127;BME280;13080;42.608;23.362;2023-10-13T01:11:39;153446.00;;;9.27;89.03
10127;BME280;13080;42.608;23.362;2023-10-13T01:14:06;153435.59;;;9.23;88.95
10127;BME280;13080;42.608;23.362;2023-10-13T01:16:32;153427.84;;;9.20;88.93
10127;BME280;13080;42.608;23.362;2023-10-13T01:18:59;153423.94;;;9.18;89.43
10127;BME280;13080;42.608;23.362;2023-10-13T01:21:25;153418.72;;;9.16;89.93
10127;BME280;13080;42.608;23.362;2023-10-13T01:23:55;153413.53;;;9.14;89.53
10127;BME280;13080;42.608;23.362;2023-10-13T01:26:21;153408.34;;;9.12;90.11
10127;BME280;13080;42.608;23.362;2023-10-13T01:28:50;153405.78;;;9.11;90.06
10127;BME280;13080;42.608;23.362;2023-10-13T01:31:16;153404.47;;;9.10;90.22
10127;BME280;13080;42.608;23.362;2023-10-13T01:33:53;153421.34;;;9.17;90.03
10127;BME280;13080;42.608;23.362;2023-10-13T01:36:21;153410.97;;;9.13;90.12
10127;BME280;13080;42.608;23.362;2023-10-13T01:38:48;153401.88;;;9.09;90.24
10127;BME280;13080;42.608;23.362;2023-10-13T01:41:18;153390.19;;;9.05;90.41
10127;BME280;13080;42.608;23.362;2023-10-13T01:43:45;153385.00;;;9.03;90.77
10127;BME280;13080;42.608;23.362;2023-10-13T01:46:11;153388.91;;;9.04;90.63
10127;BME280;13080;42.608;23.362;2023-10-13T01:48:40;153386.28;;;9.03;91.29
10127;BME280;13080;42.608;23.362;2023-10-13T01:51:06;153377.22;;;9.00;90.95
10127;BME280;13080;42.608;23.362;2023-10-13T01:53:36;153369.41;;;8.97;91.39
10127;BME280;13080;42.608;23.362;2023-10-13T01:56:02;153366.84;;;8.95;91.17
10127;BME280;13080;42.608;23.362;2023-10-13T01:58:37;153365.56;;;8.95;91.51
10127;BME280;13080;42.608;23.362;2023-10-13T02:01:06;153361.66;;;8.93;91.84
10127;BME280;13080;42.608;23.362;2023-10-13T02:03:34;153366.84;;;8.95;91.71
10127;BME280;13080;42.608;23.362;2023-10-13T02:06:06;153359.09;;;8.92;92.33
10127;BME280;13080;42.608;23.362;2023-10-13T02:08:35;153351.28;;;8.89;92.35
10127;BME280;13080;42.608;23.362;2023-10-13T02:11:05;153342.22;;;8.86;92.07
10127;BME280;13080;42.608;23.362;2023-10-13T02:13:33;153364.22;;;8.94;92.60
10127;BME280;13080;42.608;23.362;2023-10-13T02:16:00;153353.88;;;8.90;92.16
10127;BME280;13080;42.608;23.362;2023-10-13T02:18:29;153343.50;;;8.86;92.05
10127;BME280;13080;42.608;23.362;2023-10-13T02:21:03;153343.50;;;8.86;91.85
10127;BME280;13080;42.608;23.362;2023-10-13T02:23:31;153352.56;;;8.90;92.32
10127;BME280;13080;42.608;23.362;2023-10-13T02:25:59;153351.28;;;8.89;92.19
10127;BME280;13080;42.608;23.362;2023-10-13T02:28:29;153355.19;;;8.91;92.21
10127;BME280;13080;42.608;23.362;2023-10-13T02:31:02;153335.69;;;8.83;92.42
10127;BME280;13080;42.608;23.362;2023-10-13T02:33:29;153343.50;;;8.86;92.11
10127;BME280;13080;42.608;23.362;2023-10-13T02:35:56;153338.31;;;8.84;92.28
10127;BME280;13080;42.608;23.362;2023-10-13T02:38:23;153326.66;;;8.80;91.93
10127;BME280;13080;42.608;23.362;2023-10-13T02:40:54;153333.13;;;8.82;91.80
10127;BME280;13080;42.608;23.362;2023-10-13T02:43:22;153330.56;;;8.81;92.04
10127;BME280;13080;42.608;23.362;2023-10-13T02:45:54;153333.13;;;8.82;92.84
10127;BME280;13080;42.608;23.362;2023-10-13T02:48:26;153333.13;;;8.82;93.04
10127;BME280;13080;42.608;23.362;2023-10-13T02:50:57;153331.84;;;8.82;92.42
10127;BME280;13080;42.608;23.362;2023-10-13T02:53:28;153337.03;;;8.84;92.52
10127;BME280;13080;42.608;23.362;2023-10-13T02:55:55;153326.66;;;8.80;92.49
10127;BME280;13080;42.608;23.362;2023-10-13T02:58:23;153325.34;;;8.79;92.44
10127;BME280;13080;42.608;23.362;2023-10-13T03:01:07;153338.31;;;8.84;92.84
10127;BME280;13080;42.608;23.362;2023-10-13T03:03:44;153313.69;;;8.74;92.34
10127;BME280;13080;42.608;23.362;2023-10-13T03:06:15;153314.97;;;8.75;91.54
10127;BME280;13080;42.608;23.362;2023-10-13T03:08:42;153307.16;;;8.72;91.35
10127;BME280;13080;42.608;23.362;2023-10-13T03:11:10;153309.78;;;8.73;91.63
10127;BME280;13080;42.608;23.362;2023-10-13T03:13:37;153304.59;;;8.71;91.75
10127;BME280;13080;42.608;23.362;2023-10-13T03:16:12;153305.88;;;8.71;91.37
10127;BME280;13080;42.608;23.362;2023-10-13T03:18:41;153307.16;;;8.72;91.11
10127;BME280;13080;42.608;23.362;2023-10-13T03:21:18;153304.59;;;8.71;91.27
10127;BME280;13080;42.608;23.362;2023-10-13T03:23:54;153294.19;;;8.67;91.08
10127;BME280;13080;42.608;23.362;2023-10-13T03:26:21;153277.34;;;8.60;90.74
10127;BME280;13080;42.608;23.362;2023-10-13T03:28:47;153272.16;;;8.58;91.03
10127;BME280;13080;42.608;23.362;2023-10-13T03:31:18;153266.97;;;8.56;90.89
10127;BME280;13080;42.608;23.362;2023-10-13T03:33:44;153257.91;;;8.52;91.07
10127;BME280;13080;42.608;23.362;2023-10-13T03:36:11;153259.19;;;8.53;91.71
10127;BME280;13080;42.608;23.362;2023-10-13T03:38:59;153248.81;;;8.49;91.82
10127;BME280;13080;42.608;23.362;2023-10-13T03:41:32;153231.97;;;8.42;91.62
10127;BME280;13080;42.608;23.362;2023-10-13T03:44:02;153238.44;;;8.45;91.72
10127;BME280;13080;42.608;23.362;2023-10-13T03:46:38;153229.38;;;8.41;92.33
10127;BME280;13080;42.608;23.362;2023-10-13T03:49:06;153218.97;;;8.37;92.25
10127;BME280;13080;42.608;23.362;2023-10-13T03:51:39;153224.16;;;8.39;92.61
10127;BME280;13080;42.608;23.362;2023-10-13T03:54:07;153228.06;;;8.41;92.27
10127;BME280;13080;42.608;23.362;2023-10-13T03:56:35;153231.97;;;8.42;93.09
10127;BME280;13080;42.608;23.362;2023-10-13T03:59:10;153237.16;;;8.44;93.44
10127;BME280;13080;42.608;23.362;2023-10-13T04:01:43;153244.91;;;8.47;93.39
10127;BME280;13080;42.608;23.362;2023-10-13T04:04:13;153252.72;;;8.50;93.24
10127;BME280;13080;42.608;23.362;2023-10-13T04:06:41;153252.72;;;8.50;93.15
10127;BME280;13080;42.608;23.362;2023-10-13T04:09:41;153281.25;;;8.62;93.16
10127;BME280;13080;42.608;23.362;2023-10-13T04:12:39;153281.25;;;8.62;92.65
10127;BME280;13080;42.608;23.362;2023-10-13T04:15:20;153265.69;;;8.56;92.83
10127;BME280;13080;42.608;23.362;2023-10-13T04:18:02;153261.78;;;8.54;93.21
10127;BME280;13080;42.608;23.362;2023-10-13T04:20:39;153265.69;;;8.56;92.47
10127;BME280;13080;42.608;23.362;2023-10-13T04:23:12;153270.88;;;8.58;92.71
10127;BME280;13080;42.608;23.362;2023-10-13T04:25:53;153270.88;;;8.58;92.01
10127;BME280;13080;42.608;23.362;2023-10-13T04:28:33;153270.88;;;8.58;91.29
10127;BME280;13080;42.608;23.362;2023-10-13T04:31:17;153274.78;;;8.59;90.84
10127;BME280;13080;42.608;23.362;2023-10-13T04:34:10;153272.16;;;8.58;89.74
10127;BME280;13080;42.608;23.362;2023-10-13T04:36:45;153278.63;;;8.61;88.25
10127;BME280;13080;42.608;23.362;2023-10-13T04:39:11;153279.97;;;8.61;86.91
10127;BME280;13080;42.608;23.362;2023-10-13T04:41:43;153299.41;;;8.69;85.73
10127;BME280;13080;42.608;23.362;2023-10-13T04:44:23;153311.06;;;8.73;85.74
10127;BME280;13080;42.608;23.362;2023-10-13T04:47:04;153316.25;;;8.76;85.99
10127;BME280;13080;42.608;23.362;2023-10-13T04:49:40;153337.03;;;8.84;86.50
10127;BME280;13080;42.608;23.362;2023-10-13T04:52:19;153360.38;;;8.93;87.23
10127;BME280;13080;42.608;23.362;2023-10-13T04:55:05;153361.66;;;8.93;86.48
10127;BME280;13080;42.608;23.362;2023-10-13T04:57:59;153368.13;;;8.96;86.47
10127;BME280;13080;42.608;23.362;2023-10-13T05:00:40;153351.28;;;8.89;87.07
10127;BME280;13080;42.608;23.362;2023-10-13T05:03:42;153338.31;;;8.84;87.50
10127;BME280;13080;42.608;23.362;2023-10-13T05:06:46;153304.59;;;8.71;88.06
10127;BME280;13080;42.608;23.362;2023-10-13T05:09:30;153295.50;;;8.67;88.44
10127;BME280;13080;42.608;23.362;2023-10-13T05:12:17;153283.81;;;8.63;89.46
10127;BME280;13080;42.608;23.362;2023-10-13T05:15:03;153283.81;;;8.63;89.90
10127;BME280;13080;42.608;23.362;2023-10-13T05:17:47;153292.91;;;8.66;89.86
10127;BME280;13080;42.608;23.362;2023-10-13T05:20:31;153300.69;;;8.69;90.47
10127;BME280;13080;42.608;23.362;2023-10-13T05:23:15;153314.97;;;8.75;91.33
10127;BME280;13080;42.608;23.362;2023-10-13T05:26:02;153329.22;;;8.81;91.78
10127;BME280;13080;42.608;23.362;2023-10-13T05:28:46;153340.88;;;8.85;91.89
10127;BME280;13080;42.608;23.362;2023-10-13T05:31:32;153355.19;;;8.91;91.79
10127;BME280;13080;42.608;23.362;2023-10-13T05:34:16;153365.56;;;8.95;90.73
10127;BME280;13080;42.608;23.362;2023-10-13T05:37:00;153377.22;;;9.00;90.85
10127;BME280;13080;42.608;23.362;2023-10-13T05:39:44;153386.28;;;9.03;91.10
10127;BME280;13080;42.608;23.362;2023-10-13T05:42:28;153399.28;;;9.08;90.71
10127;BME280;13080;42.608;23.362;2023-10-13T05:45:14;153408.34;;;9.12;90.58
10127;BME280;13080;42.608;23.362;2023-10-13T05:48:04;153421.34;;;9.17;90.79
10127;BME280;13080;42.608;23.362;2023-10-13T05:50:39;153434.31;;;9.22;90.51
10127;BME280;13080;42.608;23.362;2023-10-13T05:53:43;153451.19;;;9.29;90.65
10127;BME280;13080;42.608;23.362;2023-10-13T05:56:27;153478.44;;;9.40;90.58
10127;BME280;13080;42.608;23.362;2023-10-13T05:59:23;153507.00;;;9.51;90.31
10127;BME280;13080;42.608;23.362;2023-10-13T06:02:07;153527.72;;;9.59;89.93
10127;BME280;13080;42.608;23.362;2023-10-13T06:04:53;153554.97;;;9.70;89.33
10127;BME280;13080;42.608;23.362;2023-10-13T06:07:37;153600.41;;;9.88;89.35
10127;BME280;13080;42.608;23.362;2023-10-13T06:10:21;153639.38;;;10.03;89.45
10127;BME280;13080;42.608;23.362;2023-10-13T06:13:06;153704.31;;;10.29;88.85
10127;BME280;13080;42.608;23.362;2023-10-13T06:15:50;153749.75;;;10.47;88.42
10127;BME280;13080;42.608;23.362;2023-10-13T06:18:35;153792.66;;;10.64;87.74
10127;BME280;13080;42.608;23.362;2023-10-13T06:21:30;153825.13;;;10.76;87.65
10127;BME280;13080;42.608;23.362;2023-10-13T06:24:14;153856.28;;;10.89;87.23
10127;BME280;13080;42.608;23.362;2023-10-13T06:26:58;153871.88;;;10.95;86.89
10127;BME280;13080;42.608;23.362;2023-10-13T06:29:42;153895.28;;;11.04;86.83
10127;BME280;13080;42.608;23.362;2023-10-13T06:32:12;153912.16;;;11.11;86.96
10127;BME280;13080;42.608;23.362;2023-10-13T06:34:41;153947.22;;;11.24;86.13
10127;BME280;13080;42.608;23.362;2023-10-13T06:37:11;153964.13;;;11.31;85.86
10127;BME280;13080;42.608;23.362;2023-10-13T06:39:49;154004.41;;;11.47;85.69
10127;BME280;13080;42.608;23.362;2023-10-13T06:42:17;154038.22;;;11.60;84.81
10127;BME280;13080;42.608;23.362;2023-10-13T06:44:45;154029.09;;;11.57;85.07
10127;BME280;13080;42.608;23.362;2023-10-13T06:47:12;154056.41;;;11.68;84.77
10127;BME280;13080;42.608;23.362;2023-10-13T06:49:39;154074.59;;;11.75;84.14
10127;BME280;13080;42.608;23.362;2023-10-13T06:52:09;154096.69;;;11.83;83.79
10127;BME280;13080;42.608;23.362;2023-10-13T06:54:37;154126.69;;;11.95;83.08
10127;BME280;13080;42.608;23.362;2023-10-13T06:57:06;154137.03;;;11.99;83.06
10127;BME280;13080;42.608;23.362;2023-10-13T06:59:39;154152.66;;;12.05;82.40
10127;BME280;13080;42.608;23.362;2023-10-13T07:02:06;154221.56;;;12.33;80.27
10127;BME280;13080;42.608;23.362;2023-10-13T07:04:34;154234.59;;;12.38;80.10
10127;BME280;13080;42.608;23.362;2023-10-13T07:07:04;154277.50;;;12.55;79.98
10127;BME280;13080;42.608;23.362;2023-10-13T07:09:34;154311.31;;;12.68;79.45
10127;BME280;13080;42.608;23.362;2023-10-13T07:12:16;154336.03;;;12.78;79.36
10127;BME280;13080;42.608;23.362;2023-10-13T07:14:47;154346.44;;;12.82;79.44
10127;BME280;13080;42.608;23.362;2023-10-13T07:17:19;154368.56;;;12.90;78.42
10127;BME280;13080;42.608;23.362;2023-10-13T07:19:50;154388.09;;;12.98;78.20
10127;BME280;13080;42.608;23.362;2023-10-13T07:22:22;154425.81;;;13.13;77.20
10127;BME280;13080;42.608;23.362;2023-10-13T07:24:51;154463.63;;;13.28;76.60
10127;BME280;13080;42.608;23.362;2023-10-13T07:27:20;154488.31;;;13.38;76.67
10127;BME280;13080;42.608;23.362;2023-10-13T07:29:51;154545.59;;;13.60;75.23
10127;BME280;13080;42.608;23.362;2023-10-13T07:32:38;154566.44;;;13.68;75.77
10127;BME280;13080;42.608;23.362;2023-10-13T07:35:10;154618.50;;;13.89;73.52
10127;BME280;13080;42.608;23.362;2023-10-13T07:37:37;154632.84;;;13.95;74.24
10127;BME280;13080;42.608;23.362;2023-10-13T07:40:07;154653.66;;;14.03;73.46
10127;BME280;13080;42.608;23.362;2023-10-13T07:42:49;154690.13;;;14.17;72.26
10127;BME280;13080;42.608;23.362;2023-10-13T07:45:16;154701.84;;;14.22;72.71
10127;BME280;13080;42.608;23.362;2023-10-13T07:48:01;154738.28;;;14.36;72.80
10127;BME280;13080;42.608;23.362;2023-10-13T07:50:29;154769.59;;;14.48;71.45
10127;BME280;13080;42.608;23.362;2023-10-13T07:52:59;154786.50;;;14.55;71.27
10127;BME280;13080;42.608;23.362;2023-10-13T07:55:30;154820.38;;;14.68;71.91
10127;BME280;13080;42.608;23.362;2023-10-13T07:58:00;154899.88;;;15.00;70.11
10127;BME280;13080;42.608;23.362;2023-10-13T08:00:33;154903.78;;;15.01;70.51
10127;BME280;13080;42.608;23.362;2023-10-13T08:03:12;154968.91;;;15.27;69.07
10127;BME280;13080;42.608;23.362;2023-10-13T08:05:57;154987.22;;;15.34;69.86
10127;BME280;13080;42.608;23.362;2023-10-13T08:08:30;154992.41;;;15.36;68.60
10127;BME280;13080;42.608;23.362;2023-10-13T08:11:03;155035.41;;;15.53;68.03
10127;BME280;13080;42.608;23.362;2023-10-13T08:13:38;155060.16;;;15.63;68.03
10127;BME280;13080;42.608;23.362;2023-10-13T08:16:11;155095.44;;;15.76;67.65
10127;BME280;13080;42.608;23.362;2023-10-13T08:18:46;155122.78;;;15.87;66.45
10127;BME280;13080;42.608;23.362;2023-10-13T08:21:14;155168.41;;;16.05;65.54
10127;BME280;13080;42.608;23.362;2023-10-13T08:23:45;155206.25;;;16.20;64.88
10127;BME280;13080;42.608;23.362;2023-10-13T08:26:28;155247.97;;;16.36;65.03
10127;BME280;13080;42.608;23.362;2023-10-13T08:29:24;155304.06;;;16.58;63.23
10127;BME280;13080;42.608;23.362;2023-10-13T08:32:08;155324.97;;;16.67;63.41
10127;BME280;13080;42.608;23.362;2023-10-13T08:34:48;155321.03;;;16.65;64.13
10127;BME280;13080;42.608;23.362;2023-10-13T08:37:35;155375.91;;;16.87;61.98
10127;BME280;13080;42.608;23.362;2023-10-13T08:40:13;155332.75;;;16.70;63.47
10127;BME280;13080;42.608;23.362;2023-10-13T08:43:13;155373.25;;;16.86;64.11
10127;BME280;13080;42.608;23.362;2023-10-13T08:45:41;155405.88;;;16.98;62.53
10127;BME280;13080;42.608;23.362;2023-10-13T08:48:20;155424.16;;;17.06;62.11
10127;BME280;13080;42.608;23.362;2023-10-13T08:50:52;155464.59;;;17.21;62.18
10127;BME280;13080;42.608;23.362;2023-10-13T08:53:22;155512.91;;;17.40;61.04
10127;BME280;13080;42.608;23.362;2023-10-13T08:55:58;155520.72;;;17.43;61.43
10127;BME280;13080;42.608;23.362;2023-10-13T08:58:31;155507.69;;;17.38;61.89
10127;BME280;13080;42.608;23.362;2023-10-13T09:01:18;155485.50;;;17.30;61.73
10127;BME280;13080;42.608;23.362;2023-10-13T09:03:59;155477.69;;;17.27;62.05
10127;BME280;13080;42.608;23.362;2023-10-13T09:06:48;155486.78;;;17.30;62.21
10127;BME280;13080;42.608;23.362;2023-10-13T09:09:27;155532.47;;;17.48;63.05
10127;BME280;13080;42.608;23.362;2023-10-13T09:11:59;155548.16;;;17.54;61.76
10127;BME280;13080;42.608;23.362;2023-10-13T09:14:34;155569.03;;;17.62;61.38
10127;BME280;13080;42.608;23.362;2023-10-13T09:17:05;155593.84;;;17.72;61.37
10127;BME280;13080;42.608;23.362;2023-10-13T09:19:45;155634.34;;;17.88;60.84
10127;BME280;13080;42.608;23.362;2023-10-13T09:22:24;155672.22;;;18.03;59.22
10127;BME280;13080;42.608;23.362;2023-10-13T09:24:55;155694.44;;;18.12;57.98
10127;BME280;13080;42.608;23.362;2023-10-13T09:27:25;155741.44;;;18.30;57.49
10127;BME280;13080;42.608;23.362;2023-10-13T09:29:59;155793.66;;;18.51;56.88
10127;BME280;13080;42.608;23.362;2023-10-13T09:32:44;155826.34;;;18.63;55.97
10127;BME280;13080;42.608;23.362;2023-10-13T09:35:17;155890.38;;;18.88;54.39
10127;BME280;13080;42.608;23.362;2023-10-13T09:37:44;155913.91;;;18.98;54.54
10127;BME280;13080;42.608;23.362;2023-10-13T09:40:15;155951.81;;;19.13;54.66
10127;BME280;13080;42.608;23.362;2023-10-13T09:42:51;155983.16;;;19.25;53.85
10127;BME280;13080;42.608;23.362;2023-10-13T09:45:24;156060.28;;;19.55;51.62
10127;BME280;13080;42.608;23.362;2023-10-13T09:47:55;156017.13;;;19.38;53.00
10127;BME280;13080;42.608;23.362;2023-10-13T09:50:36;156055.06;;;19.53;52.67
10127;BME280;13080;42.608;23.362;2023-10-13T09:53:03;156092.94;;;19.68;51.28
10127;BME280;13080;42.608;23.362;2023-10-13T09:55:36;156121.72;;;19.79;50.78
10127;BME280;13080;42.608;23.362;2023-10-13T09:58:07;156145.25;;;19.88;49.46
10127;BME280;13080;42.608;23.362;2023-10-13T10:00:43;156149.19;;;19.90;49.26
10127;BME280;13080;42.608;23.362;2023-10-13T10:03:15;156125.69;;;19.81;50.12
10127;BME280;13080;42.608;23.362;2023-10-13T10:05:59;156133.50;;;19.84;48.81
10127;BME280;13080;42.608;23.362;2023-10-13T10:08:32;156123.03;;;19.80;49.70
10127;BME280;13080;42.608;23.362;2023-10-13T10:14:26;156168.78;;;19.98;49.01
10127;BME280;13080;42.608;23.362;2023-10-13T10:17:04;156210.66;;;20.14;48.21
10127;BME280;13080;42.608;23.362;2023-10-13T10:19:45;156225.03;;;20.20;47.08
10127;BME280;13080;42.608;23.362;2023-10-13T10:22:12;156222.44;;;20.19;47.50
10127;BME280;13080;42.608;23.362;2023-10-13T10:24:43;156265.56;;;20.35;47.55
10127;BME280;13080;42.608;23.362;2023-10-13T10:27:11;156281.25;;;20.42;45.61
10127;BME280;13080;42.608;23.362;2023-10-13T10:29:39;156317.91;;;20.56;45.00
10127;BME280;13080;42.608;23.362;2023-10-13T10:32:12;156345.38;;;20.67;43.74
10127;BME280;13080;42.608;23.362;2023-10-13T10:34:41;156368.94;;;20.76;44.06
10127;BME280;13080;42.608;23.362;2023-10-13T10:37:08;156393.81;;;20.86;44.66
10127;BME280;13080;42.608;23.362;2023-10-13T10:39:36;156435.66;;;21.02;41.68
10127;BME280;13080;42.608;23.362;2023-10-13T10:42:11;156469.69;;;21.15;42.41
10127;BME280;13080;42.608;23.362;2023-10-13T10:44:49;156515.47;;;21.33;41.75
10127;BME280;13080;42.608;23.362;2023-10-13T10:47:21;156541.72;;;21.44;41.73
10127;BME280;13080;42.608;23.362;2023-10-13T10:49:57;156554.81;;;21.49;40.75
10127;BME280;13080;42.608;23.362;2023-10-13T10:52:27;156552.16;;;21.48;39.66
10127;BME280;13080;42.608;23.362;2023-10-13T10:55:02;156567.88;;;21.54;40.87
10127;BME280;13080;42.608;23.362;2023-10-13T10:57:32;156573.13;;;21.56;40.73
10127;BME280;13080;42.608;23.362;2023-10-13T11:00:03;156582.28;;;21.59;40.29
10127;BME280;13080;42.608;23.362;2023-10-13T11:02:37;156582.28;;;21.59;40.42
10127;BME280;13080;42.608;23.362;2023-10-13T11:05:06;156580.94;;;21.59;40.32
10127;BME280;13080;42.608;23.362;2023-10-13T11:07:35;156575.75;;;21.57;39.63
10127;BME280;13080;42.608;23.362;2023-10-13T11:10:09;156611.09;;;21.71;39.53
10127;BME280;13080;42.608;23.362;2023-10-13T11:12:53;156558.75;;;21.50;40.55
10127;BME280;13080;42.608;23.362;2023-10-13T11:15:20;156539.09;;;21.43;41.51
10127;BME280;13080;42.608;23.362;2023-10-13T11:17:48;156546.97;;;21.46;39.28
10127;BME280;13080;42.608;23.362;2023-10-13T11:20:18;156528.56;;;21.38;39.62
10127;BME280;13080;42.608;23.362;2023-10-13T11:22:51;156537.78;;;21.42;39.00
10127;BME280;13080;42.608;23.362;2023-10-13T11:25:23;156529.91;;;21.39;39.92
10127;BME280;13080;42.608;23.362;2023-10-13T11:27:55;156519.41;;;21.35;39.75
10127;BME280;13080;42.608;23.362;2023-10-13T11:30:25;156531.19;;;21.39;39.46
10127;BME280;13080;42.608;23.362;2023-10-13T11:33:01;156533.84;;;21.41;39.13
10127;BME280;13080;42.608;23.362;2023-10-13T11:35:32;156545.63;;;21.45;39.92
10127;BME280;13080;42.608;23.362;2023-10-13T11:38:17;156575.75;;;21.57;40.56
10127;BME280;13080;42.608;23.362;2023-10-13T11:40:55;156594.06;;;21.64;39.75
10127;BME280;13080;42.608;23.362;2023-10-13T11:43:38;156594.06;;;21.64;39.34
10127;BME280;13080;42.608;23.362;2023-10-13T11:46:28;156582.28;;;21.59;40.06
10127;BME280;13080;42.608;23.362;2023-10-13T11:49:13;156575.75;;;21.57;39.86
10127;BME280;13080;42.608;23.362;2023-10-13T11:51:58;156595.38;;;21.65;39.28
10127;BME280;13080;42.608;23.362;2023-10-13T11:54:35;156586.19;;;21.61;39.50
10127;BME280;13080;42.608;23.362;2023-10-13T11:57:07;156591.41;;;21.63;38.98
10127;BME280;13080;42.608;23.362;2023-10-13T11:59:34;156594.06;;;21.64;37.94
10127;BME280;13080;42.608;23.362;2023-10-13T12:02:06;156582.28;;;21.59;38.76
10127;BME280;13080;42.608;23.362;2023-10-13T12:04:50;156583.59;;;21.60;38.59
10127;BME280;13080;42.608;23.362;2023-10-13T12:07:21;156597.97;;;21.66;39.64
10127;BME280;13080;42.608;23.362;2023-10-13T12:09:52;156621.56;;;21.75;39.86
10127;BME280;13080;42.608;23.362;2023-10-13T12:12:31;156625.47;;;21.76;37.87
10127;BME280;13080;42.608;23.362;2023-10-13T12:15:06;156614.97;;;21.72;38.86
10127;BME280;13080;42.608;23.362;2023-10-13T12:17:39;156609.75;;;21.70;39.90
10127;BME280;13080;42.608;23.362;2023-10-13T12:20:10;156595.38;;;21.65;38.95
10127;BME280;13080;42.608;23.362;2023-10-13T12:22:45;156586.19;;;21.61;39.46
10127;BME280;13080;42.608;23.362;2023-10-13T12:25:20;156580.94;;;21.59;39.97
10127;BME280;13080;42.608;23.362;2023-10-13T12:28:00;156567.88;;;21.54;39.18
10127;BME280;13080;42.608;23.362;2023-10-13T12:30:38;156560.03;;;21.51;39.29
10127;BME280;13080;42.608;23.362;2023-10-13T12:33:15;156580.94;;;21.59;39.08
10127;BME280;13080;42.608;23.362;2023-10-13T12:35:50;156578.34;;;21.58;38.68
10127;BME280;13080;42.608;23.362;2023-10-13T12:38:30;156601.91;;;21.67;38.09
10127;BME280;13080;42.608;23.362;2023-10-13T12:41:17;156582.28;;;21.59;38.82
10127;BME280;13080;42.608;23.362;2023-10-13T12:44:01;156579.66;;;21.58;38.25
10127;BME280;13080;42.608;23.362;2023-10-13T12:46:42;156565.28;;;21.53;38.56
10127;BME280;13080;42.608;23.362;2023-10-13T12:49:26;156546.97;;;21.46;38.53
10127;BME280;13080;42.608;23.362;2023-10-13T12:52:15;156541.72;;;21.44;39.63
10127;BME280;13080;42.608;23.362;2023-10-13T12:54:46;156541.72;;;21.44;39.07
10127;BME280;13080;42.608;23.362;2023-10-13T12:57:24;156528.56;;;21.38;39.66
10127;BME280;13080;42.608;23.362;2023-10-13T12:59:51;156518.06;;;21.34;39.21
10127;BME280;13080;42.608;23.362;2023-10-13T13:02:19;156520.72;;;21.35;40.38
10127;BME280;13080;42.608;23.362;2023-10-13T13:04:46;156543.03;;;21.44;39.80
10127;BME280;13080;42.608;23.362;2023-10-13T13:07:16;156554.81;;;21.49;39.39
10127;BME280;13080;42.608;23.362;2023-10-13T13:09:43;156554.81;;;21.49;39.03
10127;BME280;13080;42.608;23.362;2023-10-13T13:12:11;156549.56;;;21.47;39.13
10127;BME280;13080;42.608;23.362;2023-10-13T13:14:39;156533.84;;;21.41;39.85
10127;BME280;13080;42.608;23.362;2023-10-13T13:17:11;156541.72;;;21.44;38.47
10127;BME280;13080;42.608;23.362;2023-10-13T13:19:38;156515.47;;;21.33;39.28
10127;BME280;13080;42.608;23.362;2023-10-13T13:22:06;156515.47;;;21.33;38.85
10127;BME280;13080;42.608;23.362;2023-10-13T13:24:38;156494.53;;;21.25;39.63
10127;BME280;13080;42.608;23.362;2023-10-13T13:27:08;156510.25;;;21.31;40.18